sensor_id;sensor_type;location;lat;lon;timestamp;P1;durP1;ratioP1;P2;durP2;ratioP2
73776;SDS011;62088;50.240;2.696;2022-11-27T00:01:28;18.20;;;6.30;;
73776;SDS011;62088;50.240;2.696;2022-11-27T00:03:56;19.05;;;6.57;;
73776;SDS011;62088;50.240;2.696;2022-11-27T00:06:24;17.00;;;6.45;;
73776;SDS011;62088;50.240;2.696;2022-11-27T00:08:54;16.38;;;7.10;;
73776;SDS011;62088;50.240;2.696;2022-11-27T00:11:23;20.27;;;6.18;;
73776;SDS011;62088;50.240;2.696;2022-11-27T00:13:51;19.80;;;6.03;;
73776;SDS011;62088;50.240;2.696;2022-11-27T00:16:19;24.48;;;6.65;;
73776;SDS011;62088;50.240;2.696;2022-11-27T00:18:47;18.02;;;6.18;;
73776;SDS011;62088;50.240;2.696;2022-11-27T00:21:16;21.02;;;6.18;;
73776;SDS011;62088;50.240;2.696;2022-11-27T00:23:45;20.88;;;6.50;;
73776;SDS011;62088;50.240;2.696;2022-11-27T00:26:12;20.15;;;5.53;;
73776;SDS011;62088;50.240;2.696;2022-11-27T00:28:39;21.42;;;6.43;;
73776;SDS011;62088;50.240;2.696;2022-11-27T00:31:07;22.65;;;5.63;;
73776;SDS011;62088;50.240;2.696;2022-11-27T00:33:38;25.65;;;5.32;;
73776;SDS011;62088;50.240;2.696;2022-11-27T00:36:06;19.23;;;5.50;;
73776;SDS011;62088;50.240;2.696;2022-11-27T00:38:33;12.10;;;4.72;;
73776;SDS011;62088;50.240;2.696;2022-11-27T00:41:07;17.95;;;5.45;;
73776;SDS011;62088;50.240;2.696;2022-11-27T00:43:36;20.15;;;5.70;;
73776;SDS011;62088;50.240;2.696;2022-11-27T00:48:38;14.13;;;4.75;;
73776;SDS011;62088;50.240;2.696;2022-11-27T00:51:06;13.50;;;4.97;;
73776;SDS011;62088;50.240;2.696;2022-11-27T00:53:34;17.13;;;5.38;;
73776;SDS011;62088;50.240;2.696;2022-11-27T00:56:02;16.38;;;5.22;;
73776;SDS011;62088;50.240;2.696;2022-11-27T00:58:29;18.73;;;6.07;;
73776;SDS011;62088;50.240;2.696;2022-11-27T01:00:57;24.20;;;5.57;;
73776;SDS011;62088;50.240;2.696;2022-11-27T01:03:30;19.70;;;6.47;;
73776;SDS011;62088;50.240;2.696;2022-11-27T01:06:01;17.13;;;5.75;;
73776;SDS011;62088;50.240;2.696;2022-11-27T01:08:32;14.57;;;4.70;;
73776;SDS011;62088;50.240;2.696;2022-11-27T01:11:00;17.55;;;6.03;;
73776;SDS011;62088;50.240;2.696;2022-11-27T01:13:28;18.38;;;5.47;;
73776;SDS011;62088;50.240;2.696;2022-11-27T01:16:05;13.88;;;5.32;;
73776;SDS011;62088;50.240;2.696;2022-11-27T01:18:38;14.18;;;6.13;;
73776;SDS011;62088;50.240;2.696;2022-11-27T01:21:07;20.48;;;6.75;;
73776;SDS011;62088;50.240;2.696;2022-11-27T01:23:35;16.70;;;5.97;;
73776;SDS011;62088;50.240;2.696;2022-11-27T01:26:02;16.20;;;5.40;;
73776;SDS011;62088;50.240;2.696;2022-11-27T01:28:32;18.20;;;5.65;;
73776;SDS011;62088;50.240;2.696;2022-11-27T01:31:12;14.18;;;5.43;;
73776;SDS011;62088;50.240;2.696;2022-11-27T01:33:42;23.67;;;6.38;;
73776;SDS011;62088;50.240;2.696;2022-11-27T01:36:10;13.75;;;5.10;;
73776;SDS011;62088;50.240;2.696;2022-11-27T01:38:39;22.98;;;6.75;;
73776;SDS011;62088;50.240;2.696;2022-11-27T01:41:11;16.10;;;5.30;;
73776;SDS011;62088;50.240;2.696;2022-11-27T01:48:48;16.67;;;5.68;;
73776;SDS011;62088;50.240;2.696;2022-11-27T01:51:18;19.55;;;5.68;;
73776;SDS011;62088;50.240;2.696;2022-11-27T01:53:45;19.08;;;5.57;;
73776;SDS011;62088;50.240;2.696;2022-11-27T01:56:13;15.52;;;5.18;;
73776;SDS011;62088;50.240;2.696;2022-11-27T01:58:40;16.85;;;5.60;;
73776;SDS011;62088;50.240;2.696;2022-11-27T02:01:08;19.83;;;5.60;;
73776;SDS011;62088;50.240;2.696;2022-11-27T02:03:35;16.33;;;5.65;;
73776;SDS011;62088;50.240;2.696;2022-11-27T02:06:03;19.90;;;6.13;;
73776;SDS011;62088;50.240;2.696;2022-11-27T02:08:30;17.98;;;6.30;;
73776;SDS011;62088;50.240;2.696;2022-11-27T02:11:00;18.38;;;5.95;;
73776;SDS011;62088;50.240;2.696;2022-11-27T02:13:40;20.42;;;5.72;;
73776;SDS011;62088;50.240;2.696;2022-11-27T02:16:23;23.52;;;6.47;;
73776;SDS011;62088;50.240;2.696;2022-11-27T02:22:14;17.70;;;5.85;;
73776;SDS011;62088;50.240;2.696;2022-11-27T02:30:51;19.10;;;5.53;;
73776;SDS011;62088;50.240;2.696;2022-11-27T02:33:24;19.15;;;5.32;;
73776;SDS011;62088;50.240;2.696;2022-11-27T02:35:56;17.00;;;5.47;;
73776;SDS011;62088;50.240;2.696;2022-11-27T02:38:40;14.82;;;5.60;;
73776;SDS011;62088;50.240;2.696;2022-11-27T02:41:35;16.10;;;5.80;;
73776;SDS011;62088;50.240;2.696;2022-11-27T02:44:04;15.95;;;5.55;;
73776;SDS011;62088;50.240;2.696;2022-11-27T02:46:34;13.38;;;5.07;;
73776;SDS011;62088;50.240;2.696;2022-11-27T02:49:05;18.20;;;5.80;;
73776;SDS011;62088;50.240;2.696;2022-11-27T02:51:38;18.13;;;5.13;;
73776;SDS011;62088;50.240;2.696;2022-11-27T02:54:13;16.45;;;5.80;;
73776;SDS011;62088;50.240;2.696;2022-11-27T02:56:47;18.58;;;5.50;;
73776;SDS011;62088;50.240;2.696;2022-11-27T02:59:15;13.98;;;5.38;;
73776;SDS011;62088;50.240;2.696;2022-11-27T03:01:54;14.75;;;5.10;;
73776;SDS011;62088;50.240;2.696;2022-11-27T03:04:32;16.52;;;5.57;;
73776;SDS011;62088;50.240;2.696;2022-11-27T03:07:06;15.50;;;5.65;;
73776;SDS011;62088;50.240;2.696;2022-11-27T03:09:38;17.58;;;5.63;;
73776;SDS011;62088;50.240;2.696;2022-11-27T03:12:08;18.38;;;6.07;;
73776;SDS011;62088;50.240;2.696;2022-11-27T03:14:37;16.73;;;5.68;;
73776;SDS011;62088;50.240;2.696;2022-11-27T03:20:25;19.48;;;5.30;;
73776;SDS011;62088;50.240;2.696;2022-11-27T03:22:55;13.70;;;5.35;;
73776;SDS011;62088;50.240;2.696;2022-11-27T03:25:22;17.55;;;5.80;;
73776;SDS011;62088;50.240;2.696;2022-11-27T03:28:00;20.92;;;6.20;;
73776;SDS011;62088;50.240;2.696;2022-11-27T03:30:30;23.60;;;6.15;;
73776;SDS011;62088;50.240;2.696;2022-11-27T03:32:57;15.73;;;5.80;;
73776;SDS011;62088;50.240;2.696;2022-11-27T03:35:25;19.02;;;5.63;;
73776;SDS011;62088;50.240;2.696;2022-11-27T03:37:53;13.80;;;5.43;;
73776;SDS011;62088;50.240;2.696;2022-11-27T03:40:22;17.45;;;5.72;;
73776;SDS011;62088;50.240;2.696;2022-11-27T03:42:58;15.32;;;4.82;;
73776;SDS011;62088;50.240;2.696;2022-11-27T03:45:40;16.58;;;6.35;;
73776;SDS011;62088;50.240;2.696;2022-11-27T03:54:01;19.75;;;6.03;;
73776;SDS011;62088;50.240;2.696;2022-11-27T03:59:29;17.63;;;5.55;;
73776;SDS011;62088;50.240;2.696;2022-11-27T04:02:02;18.27;;;4.68;;
73776;SDS011;62088;50.240;2.696;2022-11-27T04:04:29;20.13;;;5.22;;
73776;SDS011;62088;50.240;2.696;2022-11-27T04:06:56;17.45;;;5.25;;
73776;SDS011;62088;50.240;2.696;2022-11-27T04:09:23;16.90;;;5.40;;
73776;SDS011;62088;50.240;2.696;2022-11-27T04:11:50;18.13;;;5.50;;
73776;SDS011;62088;50.240;2.696;2022-11-27T04:14:17;15.07;;;5.45;;
73776;SDS011;62088;50.240;2.696;2022-11-27T04:16:44;13.50;;;5.65;;
73776;SDS011;62088;50.240;2.696;2022-11-27T04:19:11;13.10;;;5.30;;
73776;SDS011;62088;50.240;2.696;2022-11-27T04:21:38;16.83;;;5.43;;
73776;SDS011;62088;50.240;2.696;2022-11-27T04:24:05;16.90;;;4.93;;
73776;SDS011;62088;50.240;2.696;2022-11-27T04:26:32;13.60;;;5.22;;
73776;SDS011;62088;50.240;2.696;2022-11-27T04:28:59;20.95;;;5.40;;
73776;SDS011;62088;50.240;2.696;2022-11-27T04:31:27;19.42;;;6.13;;
73776;SDS011;62088;50.240;2.696;2022-11-27T04:43:02;14.68;;;5.35;;
73776;SDS011;62088;50.240;2.696;2022-11-27T04:48:25;15.02;;;5.40;;
73776;SDS011;62088;50.240;2.696;2022-11-27T04:50:55;18.73;;;5.25;;
73776;SDS011;62088;50.240;2.696;2022-11-27T04:53:22;15.23;;;5.28;;
73776;SDS011;62088;50.240;2.696;2022-11-27T04:55:50;15.70;;;5.55;;
73776;SDS011;62088;50.240;2.696;2022-11-27T05:07:40;15.77;;;4.82;;
73776;SDS011;62088;50.240;2.696;2022-11-27T05:10:08;17.23;;;4.90;;
73776;SDS011;62088;50.240;2.696;2022-11-27T05:15:45;16.20;;;5.07;;
73776;SDS011;62088;50.240;2.696;2022-11-27T05:24:12;11.60;;;5.13;;
73776;SDS011;62088;50.240;2.696;2022-11-27T05:32:34;16.10;;;5.00;;
73776;SDS011;62088;50.240;2.696;2022-11-27T06:02:48;11.45;;;4.60;;
73776;SDS011;62088;50.240;2.696;2022-11-27T06:05:15;18.75;;;5.30;;
73776;SDS011;62088;50.240;2.696;2022-11-27T06:07:42;13.73;;;4.47;;
73776;SDS011;62088;50.240;2.696;2022-11-27T06:10:10;12.70;;;4.63;;
73776;SDS011;62088;50.240;2.696;2022-11-27T06:12:37;16.08;;;4.90;;
73776;SDS011;62088;50.240;2.696;2022-11-27T06:28:41;11.68;;;4.55;;
73776;SDS011;62088;50.240;2.696;2022-11-27T06:31:11;13.02;;;4.05;;
73776;SDS011;62088;50.240;2.696;2022-11-27T06:36:15;27.85;;;4.85;;
73776;SDS011;62088;50.240;2.696;2022-11-27T06:38:43;14.18;;;3.90;;
73776;SDS011;62088;50.240;2.696;2022-11-27T06:41:12;14.75;;;4.38;;
73776;SDS011;62088;50.240;2.696;2022-11-27T06:43:41;15.15;;;5.18;;
73776;SDS011;62088;50.240;2.696;2022-11-27T06:46:10;10.82;;;4.00;;
73776;SDS011;62088;50.240;2.696;2022-11-27T06:48:39;15.68;;;4.75;;
73776;SDS011;62088;50.240;2.696;2022-11-27T06:51:09;11.60;;;4.50;;
73776;SDS011;62088;50.240;2.696;2022-11-27T06:53:38;11.70;;;3.97;;
73776;SDS011;62088;50.240;2.696;2022-11-27T06:56:08;15.23;;;4.10;;
73776;SDS011;62088;50.240;2.696;2022-11-27T07:10:27;15.18;;;4.25;;
73776;SDS011;62088;50.240;2.696;2022-11-27T07:12:55;15.05;;;4.22;;
73776;SDS011;62088;50.240;2.696;2022-11-27T07:15:22;13.10;;;4.25;;
73776;SDS011;62088;50.240;2.696;2022-11-27T07:20:25;13.52;;;4.20;;
73776;SDS011;62088;50.240;2.696;2022-11-27T07:22:52;11.65;;;4.90;;
73776;SDS011;62088;50.240;2.696;2022-11-27T07:25:19;10.73;;;4.40;;
73776;SDS011;62088;50.240;2.696;2022-11-27T07:27:46;14.13;;;4.32;;
73776;SDS011;62088;50.240;2.696;2022-11-27T07:30:14;9.25;;;3.90;;
73776;SDS011;62088;50.240;2.696;2022-11-27T07:33:06;11.45;;;4.07;;
73776;SDS011;62088;50.240;2.696;2022-11-27T07:35:33;11.40;;;4.47;;
73776;SDS011;62088;50.240;2.696;2022-11-27T07:38:00;13.40;;;4.32;;
73776;SDS011;62088;50.240;2.696;2022-11-27T07:40:27;14.45;;;4.30;;
73776;SDS011;62088;50.240;2.696;2022-11-27T07:42:54;11.95;;;4.20;;
73776;SDS011;62088;50.240;2.696;2022-11-27T07:45:21;12.95;;;4.45;;
73776;SDS011;62088;50.240;2.696;2022-11-27T07:47:48;14.35;;;4.45;;
73776;SDS011;62088;50.240;2.696;2022-11-27T07:50:15;15.82;;;4.60;;
73776;SDS011;62088;50.240;2.696;2022-11-27T07:52:42;12.65;;;4.57;;
73776;SDS011;62088;50.240;2.696;2022-11-27T07:55:09;10.15;;;4.20;;
73776;SDS011;62088;50.240;2.696;2022-11-27T07:57:37;9.38;;;4.18;;
73776;SDS011;62088;50.240;2.696;2022-11-27T08:00:05;11.82;;;4.70;;
73776;SDS011;62088;50.240;2.696;2022-11-27T08:05:28;11.32;;;4.80;;
73776;SDS011;62088;50.240;2.696;2022-11-27T08:08:01;13.33;;;4.93;;
73776;SDS011;62088;50.240;2.696;2022-11-27T08:10:33;18.90;;;4.68;;
73776;SDS011;62088;50.240;2.696;2022-11-27T08:28:34;9.13;;;4.30;;
73776;SDS011;62088;50.240;2.696;2022-11-27T08:34:11;12.15;;;5.05;;
73776;SDS011;62088;50.240;2.696;2022-11-27T08:36:38;14.93;;;4.60;;
73776;SDS011;62088;50.240;2.696;2022-11-27T08:39:05;10.57;;;4.55;;
73776;SDS011;62088;50.240;2.696;2022-11-27T08:41:33;11.60;;;4.93;;
73776;SDS011;62088;50.240;2.696;2022-11-27T08:44:00;9.50;;;4.90;;
73776;SDS011;62088;50.240;2.696;2022-11-27T08:49:01;12.05;;;4.22;;
73776;SDS011;62088;50.240;2.696;2022-11-27T08:57:41;11.00;;;4.40;;
73776;SDS011;62088;50.240;2.696;2022-11-27T09:00:09;12.30;;;4.45;;
73776;SDS011;62088;50.240;2.696;2022-11-27T09:11:42;9.93;;;4.35;;
73776;SDS011;62088;50.240;2.696;2022-11-27T09:14:10;10.88;;;4.45;;
73776;SDS011;62088;50.240;2.696;2022-11-27T09:19:40;9.77;;;4.57;;
73776;SDS011;62088;50.240;2.696;2022-11-27T09:22:07;11.25;;;4.85;;
73776;SDS011;62088;50.240;2.696;2022-11-27T09:24:35;14.68;;;4.88;;
73776;SDS011;62088;50.240;2.696;2022-11-27T09:27:02;11.23;;;4.40;;
73776;SDS011;62088;50.240;2.696;2022-11-27T09:35:52;12.07;;;4.95;;
73776;SDS011;62088;50.240;2.696;2022-11-27T10:51:40;10.45;;;5.28;;
73776;SDS011;62088;50.240;2.696;2022-11-27T10:54:11;12.00;;;6.03;;
73776;SDS011;62088;50.240;2.696;2022-11-27T10:59:52;14.50;;;6.38;;
73776;SDS011;62088;50.240;2.696;2022-11-27T11:02:44;12.82;;;5.43;;
73776;SDS011;62088;50.240;2.696;2022-11-27T11:08:16;11.53;;;5.30;;
73776;SDS011;62088;50.240;2.696;2022-11-27T11:10:53;14.10;;;5.72;;
73776;SDS011;62088;50.240;2.696;2022-11-27T11:18:45;14.85;;;6.63;;
73776;SDS011;62088;50.240;2.696;2022-11-27T11:24:05;12.93;;;5.28;;
73776;SDS011;62088;50.240;2.696;2022-11-27T11:26:35;12.68;;;5.78;;
73776;SDS011;62088;50.240;2.696;2022-11-27T11:32:07;17.50;;;6.13;;
73776;SDS011;62088;50.240;2.696;2022-11-27T11:34:44;10.32;;;5.57;;
73776;SDS011;62088;50.240;2.696;2022-11-27T11:37:28;11.68;;;5.32;;
73776;SDS011;62088;50.240;2.696;2022-11-27T11:39:58;13.13;;;5.65;;
73776;SDS011;62088;50.240;2.696;2022-11-27T11:42:53;14.45;;;6.85;;
73776;SDS011;62088;50.240;2.696;2022-11-27T11:45:29;18.67;;;6.68;;
73776;SDS011;62088;50.240;2.696;2022-11-27T11:48:14;13.82;;;5.75;;
73776;SDS011;62088;50.240;2.696;2022-11-27T11:50:56;12.25;;;6.00;;
73776;SDS011;62088;50.240;2.696;2022-11-27T11:53:43;14.73;;;6.20;;
73776;SDS011;62088;50.240;2.696;2022-11-27T11:56:30;14.02;;;6.28;;
73776;SDS011;62088;50.240;2.696;2022-11-27T12:09:56;17.77;;;6.82;;
73776;SDS011;62088;50.240;2.696;2022-11-27T12:12:41;12.30;;;5.78;;
73776;SDS011;62088;50.240;2.696;2022-11-27T12:15:34;18.80;;;6.20;;
73776;SDS011;62088;50.240;2.696;2022-11-27T12:24:13;13.93;;;5.70;;
73776;SDS011;62088;50.240;2.696;2022-11-27T12:27:06;12.55;;;5.53;;
73776;SDS011;62088;50.240;2.696;2022-11-27T12:35:17;11.85;;;5.95;;
73776;SDS011;62088;50.240;2.696;2022-11-27T12:51:24;12.10;;;5.88;;
73776;SDS011;62088;50.240;2.696;2022-11-27T12:53:57;15.07;;;6.18;;
73776;SDS011;62088;50.240;2.696;2022-11-27T13:20:59;13.27;;;5.63;;
73776;SDS011;62088;50.240;2.696;2022-11-27T13:23:33;12.80;;;6.78;;
73776;SDS011;62088;50.240;2.696;2022-11-27T13:26:03;16.67;;;6.72;;
73776;SDS011;62088;50.240;2.696;2022-11-27T13:28:40;16.40;;;6.55;;
73776;SDS011;62088;50.240;2.696;2022-11-27T13:40:59;11.00;;;5.00;;
73776;SDS011;62088;50.240;2.696;2022-11-27T13:43:41;10.38;;;4.93;;
73776;SDS011;62088;50.240;2.696;2022-11-27T14:36:30;11.45;;;5.28;;
73776;SDS011;62088;50.240;2.696;2022-11-27T14:39:03;11.13;;;5.68;;
73776;SDS011;62088;50.240;2.696;2022-11-27T14:41:30;14.27;;;5.75;;
73776;SDS011;62088;50.240;2.696;2022-11-27T14:44:01;8.40;;;4.90;;
73776;SDS011;62088;50.240;2.696;2022-11-27T14:46:30;13.73;;;5.20;;
73776;SDS011;62088;50.240;2.696;2022-11-27T14:49:00;13.13;;;5.70;;
73776;SDS011;62088;50.240;2.696;2022-11-27T14:51:34;21.25;;;6.35;;
73776;SDS011;62088;50.240;2.696;2022-11-27T14:54:10;12.23;;;5.68;;
73776;SDS011;62088;50.240;2.696;2022-11-27T14:56:42;15.65;;;5.97;;
73776;SDS011;62088;50.240;2.696;2022-11-27T14:59:14;10.02;;;5.25;;
73776;SDS011;62088;50.240;2.696;2022-11-27T15:01:43;8.63;;;4.90;;
73776;SDS011;62088;50.240;2.696;2022-11-27T15:06:53;14.77;;;8.70;;
73776;SDS011;62088;50.240;2.696;2022-11-27T15:09:24;14.10;;;7.03;;
73776;SDS011;62088;50.240;2.696;2022-11-27T15:12:06;11.43;;;5.72;;
73776;SDS011;62088;50.240;2.696;2022-11-27T15:15:02;11.93;;;5.43;;
73776;SDS011;62088;50.240;2.696;2022-11-27T15:17:33;11.55;;;5.60;;
73776;SDS011;62088;50.240;2.696;2022-11-27T15:20:09;9.10;;;5.10;;
73776;SDS011;62088;50.240;2.696;2022-11-27T15:25:42;9.93;;;6.13;;
73776;SDS011;62088;50.240;2.696;2022-11-27T15:36:56;13.27;;;5.63;;
73776;SDS011;62088;50.240;2.696;2022-11-27T15:42:15;15.02;;;4.68;;
73776;SDS011;62088;50.240;2.696;2022-11-27T15:44:45;10.95;;;5.32;;
73776;SDS011;62088;50.240;2.696;2022-11-27T15:47:26;14.07;;;5.22;;
73776;SDS011;62088;50.240;2.696;2022-11-27T15:49:56;11.50;;;6.70;;
73776;SDS011;62088;50.240;2.696;2022-11-27T15:52:25;13.15;;;5.30;;
73776;SDS011;62088;50.240;2.696;2022-11-27T16:10:08;11.30;;;4.82;;
73776;SDS011;62088;50.240;2.696;2022-11-27T16:12:35;9.07;;;4.63;;
73776;SDS011;62088;50.240;2.696;2022-11-27T16:15:07;10.75;;;5.63;;
73776;SDS011;62088;50.240;2.696;2022-11-27T16:17:35;9.40;;;5.43;;
73776;SDS011;62088;50.240;2.696;2022-11-27T16:20:02;9.10;;;5.80;;
73776;SDS011;62088;50.240;2.696;2022-11-27T16:31:35;7.50;;;4.72;;
73776;SDS011;62088;50.240;2.696;2022-11-27T16:37:12;11.60;;;5.60;;
73776;SDS011;62088;50.240;2.696;2022-11-27T16:46:05;9.32;;;6.18;;
73776;SDS011;62088;50.240;2.696;2022-11-27T16:51:37;13.32;;;7.55;;
73776;SDS011;62088;50.240;2.696;2022-11-27T17:29:00;13.32;;;8.65;;
73776;SDS011;62088;50.240;2.696;2022-11-27T17:31:30;13.05;;;8.43;;
73776;SDS011;62088;50.240;2.696;2022-11-27T17:33:59;12.45;;;8.48;;
73776;SDS011;62088;50.240;2.696;2022-11-27T17:36:28;14.40;;;8.70;;
73776;SDS011;62088;50.240;2.696;2022-11-27T17:50:46;17.17;;;8.98;;
73776;SDS011;62088;50.240;2.696;2022-11-27T18:02:34;13.63;;;10.25;;
73776;SDS011;62088;50.240;2.696;2022-11-27T18:07:41;13.88;;;9.68;;
73776;SDS011;62088;50.240;2.696;2022-11-27T18:10:09;16.98;;;12.40;;
73776;SDS011;62088;50.240;2.696;2022-11-27T18:12:36;15.45;;;10.68;;
73776;SDS011;62088;50.240;2.696;2022-11-27T18:18:10;15.77;;;10.52;;
73776;SDS011;62088;50.240;2.696;2022-11-27T18:26:40;16.40;;;10.55;;
73776;SDS011;62088;50.240;2.696;2022-11-27T18:44:42;18.27;;;11.88;;
73776;SDS011;62088;50.240;2.696;2022-11-27T18:50:14;16.73;;;10.73;;
73776;SDS011;62088;50.240;2.696;2022-11-27T19:19:55;22.40;;;11.77;;
73776;SDS011;62088;50.240;2.696;2022-11-27T19:49:54;17.33;;;9.90;;
73776;SDS011;62088;50.240;2.696;2022-11-27T20:04:19;14.50;;;8.93;;
73776;SDS011;62088;50.240;2.696;2022-11-27T20:06:50;14.98;;;8.43;;
73776;SDS011;62088;50.240;2.696;2022-11-27T20:09:45;14.38;;;9.50;;
73776;SDS011;62088;50.240;2.696;2022-11-27T20:12:12;14.10;;;8.68;;
73776;SDS011;62088;50.240;2.696;2022-11-27T20:14:39;18.27;;;11.00;;
73776;SDS011;62088;50.240;2.696;2022-11-27T20:17:08;14.20;;;9.50;;
73776;SDS011;62088;50.240;2.696;2022-11-27T20:25:50;20.90;;;9.02;;
73776;SDS011;62088;50.240;2.696;2022-11-27T20:28:18;13.77;;;8.85;;
73776;SDS011;62088;50.240;2.696;2022-11-27T20:33:58;20.08;;;9.63;;
73776;SDS011;62088;50.240;2.696;2022-11-27T20:36:30;21.38;;;10.38;;
73776;SDS011;62088;50.240;2.696;2022-11-27T20:38:59;16.42;;;9.88;;
73776;SDS011;62088;50.240;2.696;2022-11-27T20:41:27;14.82;;;9.75;;
73776;SDS011;62088;50.240;2.696;2022-11-27T20:43:56;20.50;;;10.38;;
73776;SDS011;62088;50.240;2.696;2022-11-27T20:46:25;19.08;;;11.25;;
73776;SDS011;62088;50.240;2.696;2022-11-27T20:48:53;16.60;;;9.93;;
73776;SDS011;62088;50.240;2.696;2022-11-27T20:57:27;17.13;;;11.43;;
73776;SDS011;62088;50.240;2.696;2022-11-27T21:02:32;23.05;;;11.73;;
73776;SDS011;62088;50.240;2.696;2022-11-27T21:05:02;20.08;;;12.35;;
73776;SDS011;62088;50.240;2.696;2022-11-27T21:07:29;22.63;;;12.15;;
73776;SDS011;62088;50.240;2.696;2022-11-27T21:10:07;19.33;;;13.55;;
73776;SDS011;62088;50.240;2.696;2022-11-27T21:18:28;18.85;;;12.35;;
73776;SDS011;62088;50.240;2.696;2022-11-27T21:20:55;19.02;;;12.38;;
73776;SDS011;62088;50.240;2.696;2022-11-27T21:26:25;22.67;;;13.18;;
73776;SDS011;62088;50.240;2.696;2022-11-27T21:31:54;20.23;;;12.15;;
73776;SDS011;62088;50.240;2.696;2022-11-27T21:34:25;22.87;;;14.90;;
73776;SDS011;62088;50.240;2.696;2022-11-27T21:36:53;20.83;;;14.95;;
73776;SDS011;62088;50.240;2.696;2022-11-27T21:39:20;17.98;;;11.82;;
73776;SDS011;62088;50.240;2.696;2022-11-27T21:47:57;18.35;;;10.63;;
73776;SDS011;62088;50.240;2.696;2022-11-27T21:50:24;23.25;;;11.35;;
73776;SDS011;62088;50.240;2.696;2022-11-27T21:52:51;22.08;;;11.02;;
73776;SDS011;62088;50.240;2.696;2022-11-27T21:55:19;19.17;;;11.05;;
73776;SDS011;62088;50.240;2.696;2022-11-27T22:18:42;17.50;;;9.82;;
73776;SDS011;62088;50.240;2.696;2022-11-27T22:27:21;17.08;;;9.70;;
73776;SDS011;62088;50.240;2.696;2022-11-27T22:29:49;16.35;;;10.10;;
73776;SDS011;62088;50.240;2.696;2022-11-27T22:41:21;15.93;;;9.90;;
73776;SDS011;62088;50.240;2.696;2022-11-27T22:43:51;17.17;;;10.82;;
73776;SDS011;62088;50.240;2.696;2022-11-27T23:04:45;16.45;;;11.00;;
73776;SDS011;62088;50.240;2.696;2022-11-27T23:07:12;17.48;;;12.38;;
73776;SDS011;62088;50.240;2.696;2022-11-27T23:09:39;16.42;;;11.60;;
73776;SDS011;62088;50.240;2.696;2022-11-27T23:17:59;16.98;;;11.27;;
73776;SDS011;62088;50.240;2.696;2022-11-27T23:20:26;20.10;;;12.70;;
